sensor_id;sensor_type;location;lat;lon;timestamp;pressure;altitude;pressure_sealevel;temperature;humidity
26531;BME280;14201;43.188;24.160;2023-07-31T00:01:29;99123.66;;;23.57;98.61
26531;BME280;14201;43.188;24.160;2023-07-31T00:03:55;99123.53;;;23.64;98.04
26531;BME280;14201;43.188;24.160;2023-07-31T00:06:20;99114.72;;;23.60;97.96
26531;BME280;14201;43.188;24.160;2023-07-31T00:08:46;99116.50;;;23.59;98.23
26531;BME280;14201;43.188;24.160;2023-07-31T00:11:11;99119.25;;;23.55;98.58
26531;BME280;14201;43.188;24.160;2023-07-31T00:13:37;99110.34;;;23.57;99.98
26531;BME280;14201;43.188;24.160;2023-07-31T00:16:03;99099.47;;;23.70;98.98
26531;BME280;14201;43.188;24.160;2023-07-31T00:18:29;99100.25;;;23.75;98.10
26531;BME280;14201;43.188;24.160;2023-07-31T00:20:54;99091.91;;;23.48;100.00
26531;BME280;14201;43.188;24.160;2023-07-31T00:23:20;99095.72;;;23.33;100.00
26531;BME280;14201;43.188;24.160;2023-07-31T00:25:45;99093.78;;;23.42;100.00
26531;BME280;14201;43.188;24.160;2023-07-31T00:28:11;99095.31;;;23.55;100.00
26531;BME280;14201;43.188;24.160;2023-07-31T00:30:36;99099.78;;;23.53;100.00
26531;BME280;14201;43.188;24.160;2023-07-31T00:33:02;99093.50;;;23.57;100.00
26531;BME280;14201;43.188;24.160;2023-07-31T00:35:28;99092.69;;;23.53;100.00
26531;BME280;14201;43.188;24.160;2023-07-31T00:37:53;99072.16;;;23.62;100.00
26531;BME280;14201;43.188;24.160;2023-07-31T00:40:19;99088.06;;;23.63;100.00
26531;BME280;14201;43.188;24.160;2023-07-31T00:42:44;99078.53;;;23.51;100.00
26531;BME280;14201;43.188;24.160;2023-07-31T00:45:10;99073.34;;;23.45;100.00
26531;BME280;14201;43.188;24.160;2023-07-31T00:47:36;99059.19;;;23.45;98.72
26531;BME280;14201;43.188;24.160;2023-07-31T00:50:01;99068.19;;;23.36;98.21
26531;BME280;14201;43.188;24.160;2023-07-31T00:52:27;99065.50;;;23.39;97.74
26531;BME280;14201;43.188;24.160;2023-07-31T00:54:52;99062.78;;;23.42;96.26
26531;BME280;14201;43.188;24.160;2023-07-31T00:57:18;99063.81;;;23.35;96.63
26531;BME280;14201;43.188;24.160;2023-07-31T00:59:44;99060.47;;;23.24;97.09
26531;BME280;14201;43.188;24.160;2023-07-31T01:02:09;99064.09;;;23.19;97.12
26531;BME280;14201;43.188;24.160;2023-07-31T01:04:35;99053.84;;;22.96;99.64
26531;BME280;14201;43.188;24.160;2023-07-31T01:07:27;99047.94;;;22.80;100.00
26531;BME280;14201;43.188;24.160;2023-07-31T01:10:11;99053.50;;;22.65;100.00
26531;BME280;14201;43.188;24.160;2023-07-31T01:12:41;99044.72;;;22.60;100.00
26531;BME280;14201;43.188;24.160;2023-07-31T01:15:09;99043.56;;;22.78;100.00
26531;BME280;14201;43.188;24.160;2023-07-31T01:17:37;99040.47;;;23.03;100.00
26531;BME280;14201;43.188;24.160;2023-07-31T01:20:07;99042.00;;;23.17;98.63
26531;BME280;14201;43.188;24.160;2023-07-31T01:25:16;99045.19;;;22.85;99.45
26531;BME280;14201;43.188;24.160;2023-07-31T01:27:53;99047.09;;;22.78;99.94
26531;BME280;14201;43.188;24.160;2023-07-31T01:30:24;99035.53;;;22.79;99.73
26531;BME280;14201;43.188;24.160;2023-07-31T01:32:50;99039.16;;;22.75;100.00
26531;BME280;14201;43.188;24.160;2023-07-31T01:35:17;99036.63;;;22.68;100.00
26531;BME280;14201;43.188;24.160;2023-07-31T01:37:43;99037.09;;;22.91;100.00
26531;BME280;14201;43.188;24.160;2023-07-31T01:40:09;99031.94;;;22.84;100.00
26531;BME280;14201;43.188;24.160;2023-07-31T01:42:34;99029.81;;;22.53;100.00
26531;BME280;14201;43.188;24.160;2023-07-31T01:45:00;99025.53;;;22.42;100.00
26531;BME280;14201;43.188;24.160;2023-07-31T01:47:25;99027.47;;;22.31;100.00
26531;BME280;14201;43.188;24.160;2023-07-31T01:49:51;99023.81;;;22.38;100.00
26531;BME280;14201;43.188;24.160;2023-07-31T01:52:16;99019.81;;;22.69;100.00
26531;BME280;14201;43.188;24.160;2023-07-31T01:54:42;99024.75;;;22.89;100.00
26531;BME280;14201;43.188;24.160;2023-07-31T01:57:07;99035.13;;;23.06;100.00
26531;BME280;14201;43.188;24.160;2023-07-31T01:59:33;99028.97;;;23.04;99.40
26531;BME280;14201;43.188;24.160;2023-07-31T02:01:59;99031.63;;;23.00;99.66
26531;BME280;14201;43.188;24.160;2023-07-31T02:04:24;99035.16;;;23.03;99.44
26531;BME280;14201;43.188;24.160;2023-07-31T02:06:50;99040.38;;;23.09;98.49
26531;BME280;14201;43.188;24.160;2023-07-31T02:09:15;99041.31;;;23.06;98.34
26531;BME280;14201;43.188;24.160;2023-07-31T02:11:41;99029.81;;;23.06;98.81
26531;BME280;14201;43.188;24.160;2023-07-31T02:14:07;99035.97;;;23.08;99.43
26531;BME280;14201;43.188;24.160;2023-07-31T02:16:32;99049.00;;;23.22;97.39
26531;BME280;14201;43.188;24.160;2023-07-31T02:18:58;99043.78;;;23.17;97.93
26531;BME280;14201;43.188;24.160;2023-07-31T02:21:23;99056.81;;;23.29;97.06
26531;BME280;14201;43.188;24.160;2023-07-31T02:23:49;99062.03;;;23.34;97.47
26531;BME280;14201;43.188;24.160;2023-07-31T02:26:14;99054.75;;;23.45;96.05
26531;BME280;14201;43.188;24.160;2023-07-31T02:28:40;99062.84;;;23.39;95.74
26531;BME280;14201;43.188;24.160;2023-07-31T02:31:08;99062.84;;;23.39;96.01
26531;BME280;14201;43.188;24.160;2023-07-31T02:33:34;99063.81;;;23.33;96.67
26531;BME280;14201;43.188;24.160;2023-07-31T02:35:59;99069.16;;;23.32;97.16
26531;BME280;14201;43.188;24.160;2023-07-31T02:38:25;99076.94;;;23.44;95.66
26531;BME280;14201;43.188;24.160;2023-07-31T02:40:50;99074.16;;;23.50;96.11
26531;BME280;14201;43.188;24.160;2023-07-31T02:43:16;99082.03;;;23.53;96.59
26531;BME280;14201;43.188;24.160;2023-07-31T02:45:42;99077.09;;;23.35;96.99
26531;BME280;14201;43.188;24.160;2023-07-31T02:48:07;99075.81;;;23.09;99.42
26531;BME280;14201;43.188;24.160;2023-07-31T02:50:33;99074.97;;;23.06;100.00
26531;BME280;14201;43.188;24.160;2023-07-31T02:52:58;99070.78;;;22.89;100.00
26531;BME280;14201;43.188;24.160;2023-07-31T02:55:24;99076.19;;;22.85;100.00
26531;BME280;14201;43.188;24.160;2023-07-31T02:57:50;99075.72;;;23.12;100.00
26531;BME280;14201;43.188;24.160;2023-07-31T03:00:17;99064.94;;;23.22;99.56
26531;BME280;14201;43.188;24.160;2023-07-31T03:02:43;99071.81;;;23.33;98.10
26531;BME280;14201;43.188;24.160;2023-07-31T03:05:08;99074.47;;;23.33;98.33
26531;BME280;14201;43.188;24.160;2023-07-31T03:07:34;99074.47;;;23.33;97.56
26531;BME280;14201;43.188;24.160;2023-07-31T03:09:59;99079.91;;;23.27;97.70
26531;BME280;14201;43.188;24.160;2023-07-31T03:12:25;99078.38;;;23.12;98.69
26531;BME280;14201;43.188;24.160;2023-07-31T03:14:50;99087.38;;;23.05;100.00
26531;BME280;14201;43.188;24.160;2023-07-31T03:17:16;99089.72;;;23.22;99.09
26531;BME280;14201;43.188;24.160;2023-07-31T03:19:41;99094.69;;;23.42;96.83
26531;BME280;14201;43.188;24.160;2023-07-31T03:22:07;99094.75;;;23.39;97.31
26531;BME280;14201;43.188;24.160;2023-07-31T03:24:33;99098.47;;;23.30;97.79
26531;BME280;14201;43.188;24.160;2023-07-31T03:26:58;99090.72;;;23.16;98.90
26531;BME280;14201;43.188;24.160;2023-07-31T03:29:24;99097.19;;;22.98;100.00
26531;BME280;14201;43.188;24.160;2023-07-31T03:31:49;99094.72;;;22.88;100.00
26531;BME280;14201;43.188;24.160;2023-07-31T03:34:16;99096.38;;;22.93;100.00
26531;BME280;14201;43.188;24.160;2023-07-31T03:36:42;99096.09;;;23.13;100.00
26531;BME280;14201;43.188;24.160;2023-07-31T03:39:08;99097.66;;;23.25;99.29
26531;BME280;14201;43.188;24.160;2023-07-31T03:41:33;99101.88;;;23.37;98.33
26531;BME280;14201;43.188;24.160;2023-07-31T03:43:59;99096.78;;;23.25;98.98
26531;BME280;14201;43.188;24.160;2023-07-31T03:46:25;99107.13;;;23.40;98.18
26531;BME280;14201;43.188;24.160;2023-07-31T03:48:50;99103.72;;;23.32;98.17
26531;BME280;14201;43.188;24.160;2023-07-31T03:51:16;99108.97;;;23.36;98.15
26531;BME280;14201;43.188;24.160;2023-07-31T03:53:43;99109.69;;;23.45;97.70
26531;BME280;14201;43.188;24.160;2023-07-31T03:56:09;99110.00;;;23.28;99.37
26531;BME280;14201;43.188;24.160;2023-07-31T03:58:35;99116.56;;;23.07;99.93
26531;BME280;14201;43.188;24.160;2023-07-31T04:01:02;99112.19;;;23.01;100.00
26531;BME280;14201;43.188;24.160;2023-07-31T04:03:29;99115.69;;;23.08;100.00
26531;BME280;14201;43.188;24.160;2023-07-31T04:05:55;99105.75;;;23.19;100.00
26531;BME280;14201;43.188;24.160;2023-07-31T04:08:22;99120.00;;;23.13;100.00
26531;BME280;14201;43.188;24.160;2023-07-31T04:10:47;99128.03;;;23.10;100.00
26531;BME280;14201;43.188;24.160;2023-07-31T04:13:14;99115.53;;;23.17;100.00
26531;BME280;14201;43.188;24.160;2023-07-31T04:15:39;99116.34;;;23.21;100.00
26531;BME280;14201;43.188;24.160;2023-07-31T04:18:05;99123.38;;;23.23;100.00
26531;BME280;14201;43.188;24.160;2023-07-31T04:20:31;99124.22;;;23.25;100.00
26531;BME280;14201;43.188;24.160;2023-07-31T04:22:56;99125.66;;;23.45;100.00
26531;BME280;14201;43.188;24.160;2023-07-31T04:25:22;99116.47;;;23.61;99.93
26531;BME280;14201;43.188;24.160;2023-07-31T04:27:48;99127.78;;;23.71;99.04
26531;BME280;14201;43.188;24.160;2023-07-31T04:30:13;99128.44;;;23.85;99.66
26531;BME280;14201;43.188;24.160;2023-07-31T04:32:39;99128.06;;;24.04;99.54
26531;BME280;14201;43.188;24.160;2023-07-31T04:35:05;99116.34;;;24.14;97.17
26531;BME280;14201;43.188;24.160;2023-07-31T04:37:30;99131.03;;;24.32;96.41
26531;BME280;14201;43.188;24.160;2023-07-31T04:39:56;99134.56;;;24.31;98.03
26531;BME280;14201;43.188;24.160;2023-07-31T04:42:22;99125.66;;;24.33;97.63
26531;BME280;14201;43.188;24.160;2023-07-31T04:44:48;99129.06;;;24.40;97.68
26531;BME280;14201;43.188;24.160;2023-07-31T04:47:13;99131.69;;;24.42;96.91
26531;BME280;14201;43.188;24.160;2023-07-31T04:49:39;99134.72;;;24.65;97.60
26531;BME280;14201;43.188;24.160;2023-07-31T04:52:05;99128.97;;;24.84;91.88
26531;BME280;14201;43.188;24.160;2023-07-31T04:54:31;99122.53;;;24.92;92.30
26531;BME280;14201;43.188;24.160;2023-07-31T04:56:56;99123.97;;;25.06;89.71
26531;BME280;14201;43.188;24.160;2023-07-31T04:59:22;99123.78;;;25.49;87.56
26531;BME280;14201;43.188;24.160;2023-07-31T05:01:48;99110.28;;;25.56;84.38
26531;BME280;14201;43.188;24.160;2023-07-31T05:04:14;99130.25;;;25.72;80.80
26531;BME280;14201;43.188;24.160;2023-07-31T05:06:40;99125.63;;;26.11;81.50
26531;BME280;14201;43.188;24.160;2023-07-31T05:09:05;99133.84;;;26.33;83.16
26531;BME280;14201;43.188;24.160;2023-07-31T05:11:31;99138.19;;;26.38;77.68
26531;BME280;14201;43.188;24.160;2023-07-31T05:13:57;99143.56;;;26.36;75.75
26531;BME280;14201;43.188;24.160;2023-07-31T05:16:22;99140.34;;;26.25;76.57
26531;BME280;14201;43.188;24.160;2023-07-31T05:18:48;99143.38;;;26.42;77.47
26531;BME280;14201;43.188;24.160;2023-07-31T05:21:14;99147.53;;;26.23;75.81
26531;BME280;14201;43.188;24.160;2023-07-31T05:23:39;99140.19;;;26.31;76.52
26531;BME280;14201;43.188;24.160;2023-07-31T05:26:05;99139.13;;;26.66;78.43
26531;BME280;14201;43.188;24.160;2023-07-31T05:28:31;99138.81;;;26.76;72.77
26531;BME280;14201;43.188;24.160;2023-07-31T05:31:01;99140.38;;;26.53;74.29
26531;BME280;14201;43.188;24.160;2023-07-31T05:33:27;99147.59;;;26.79;75.24
26531;BME280;14201;43.188;24.160;2023-07-31T05:35:52;99142.56;;;26.97;72.59
26531;BME280;14201;43.188;24.160;2023-07-31T05:38:18;99142.97;;;27.39;73.51
26531;BME280;14201;43.188;24.160;2023-07-31T05:40:44;99145.38;;;27.72;71.50
26531;BME280;14201;43.188;24.160;2023-07-31T05:43:09;99143.66;;;27.96;68.19
26531;BME280;14201;43.188;24.160;2023-07-31T05:45:35;99156.75;;;27.79;65.62
26531;BME280;14201;43.188;24.160;2023-07-31T05:48:02;99149.06;;;28.18;63.78
26531;BME280;14201;43.188;24.160;2023-07-31T05:50:28;99154.25;;;28.46;63.67
26531;BME280;14201;43.188;24.160;2023-07-31T05:52:53;99154.56;;;28.15;63.76
26531;BME280;14201;43.188;24.160;2023-07-31T05:55:19;99154.50;;;28.40;63.44
26531;BME280;14201;43.188;24.160;2023-07-31T05:57:45;99148.38;;;28.37;63.29
26531;BME280;14201;43.188;24.160;2023-07-31T06:00:12;99156.63;;;28.78;62.43
26531;BME280;14201;43.188;24.160;2023-07-31T06:02:37;99156.94;;;28.92;60.30
26531;BME280;14201;43.188;24.160;2023-07-31T06:05:04;99158.97;;;29.08;59.48
26531;BME280;14201;43.188;24.160;2023-07-31T06:07:31;99150.97;;;28.63;56.97
26531;BME280;14201;43.188;24.160;2023-07-31T06:09:57;99160.41;;;28.94;58.06
26531;BME280;14201;43.188;24.160;2023-07-31T06:12:28;99159.44;;;28.97;57.29
26531;BME280;14201;43.188;24.160;2023-07-31T06:14:54;99158.94;;;29.09;54.60
26531;BME280;14201;43.188;24.160;2023-07-31T06:17:20;99160.41;;;28.94;55.89
26531;BME280;14201;43.188;24.160;2023-07-31T06:19:47;99162.94;;;29.21;55.74
26531;BME280;14201;43.188;24.160;2023-07-31T06:22:15;99169.03;;;29.24;54.07
26531;BME280;14201;43.188;24.160;2023-07-31T06:24:41;99164.38;;;29.50;53.74
26531;BME280;14201;43.188;24.160;2023-07-31T06:27:06;99163.94;;;29.81;53.35
26531;BME280;14201;43.188;24.160;2023-07-31T06:29:32;99170.38;;;29.98;53.09
26531;BME280;14201;43.188;24.160;2023-07-31T06:31:58;99181.34;;;29.51;52.05
26531;BME280;14201;43.188;24.160;2023-07-31T06:34:24;99183.16;;;29.50;53.41
26531;BME280;14201;43.188;24.160;2023-07-31T06:36:49;99175.09;;;29.30;51.75
26531;BME280;14201;43.188;24.160;2023-07-31T06:39:15;99169.97;;;29.01;54.68
26531;BME280;14201;43.188;24.160;2023-07-31T06:41:41;99180.31;;;29.11;52.32
26531;BME280;14201;43.188;24.160;2023-07-31T06:44:08;99164.81;;;29.19;53.37
26531;BME280;14201;43.188;24.160;2023-07-31T06:46:33;99181.50;;;29.48;52.66
26531;BME280;14201;43.188;24.160;2023-07-31T06:48:59;99176.38;;;29.84;53.76
26531;BME280;14201;43.188;24.160;2023-07-31T06:51:25;99174.66;;;30.02;51.27
26531;BME280;14201;43.188;24.160;2023-07-31T06:53:50;99168.50;;;30.00;49.39
26531;BME280;14201;43.188;24.160;2023-07-31T06:56:16;99176.09;;;30.30;49.06
26531;BME280;14201;43.188;24.160;2023-07-31T06:58:41;99180.06;;;30.60;49.86
26531;BME280;14201;43.188;24.160;2023-07-31T07:01:07;99157.88;;;30.55;48.81
26531;BME280;14201;43.188;24.160;2023-07-31T07:03:33;99165.81;;;30.96;47.75
26531;BME280;14201;43.188;24.160;2023-07-31T07:05:58;99167.22;;;31.04;46.54
26531;BME280;14201;43.188;24.160;2023-07-31T07:08:24;99162.53;;;30.90;47.06
26531;BME280;14201;43.188;24.160;2023-07-31T07:10:50;99172.03;;;31.16;47.52
26531;BME280;14201;43.188;24.160;2023-07-31T07:13:16;99178.03;;;31.38;44.99
26531;BME280;14201;43.188;24.160;2023-07-31T07:15:50;99172.03;;;31.33;45.42
26531;BME280;14201;43.188;24.160;2023-07-31T07:18:15;99174.16;;;31.44;46.49
26531;BME280;14201;43.188;24.160;2023-07-31T07:20:47;99178.22;;;31.35;46.21
26531;BME280;14201;43.188;24.160;2023-07-31T07:23:13;99179.59;;;31.08;45.86
26531;BME280;14201;43.188;24.160;2023-07-31T07:25:38;99173.34;;;31.07;44.89
26531;BME280;14201;43.188;24.160;2023-07-31T07:28:04;99182.81;;;30.78;45.46
26531;BME280;14201;43.188;24.160;2023-07-31T07:30:30;99184.41;;;30.63;46.77
26531;BME280;14201;43.188;24.160;2023-07-31T07:32:55;99189.78;;;30.82;47.75
26531;BME280;14201;43.188;24.160;2023-07-31T07:35:21;99187.03;;;30.84;46.98
26531;BME280;14201;43.188;24.160;2023-07-31T07:37:48;99192.56;;;30.99;46.25
26531;BME280;14201;43.188;24.160;2023-07-31T07:40:16;99196.13;;;31.00;46.77
26531;BME280;14201;43.188;24.160;2023-07-31T07:42:42;99193.31;;;31.20;45.87
26531;BME280;14201;43.188;24.160;2023-07-31T07:45:08;99195.06;;;31.22;45.71
26531;BME280;14201;43.188;24.160;2023-07-31T07:47:33;99201.34;;;31.39;45.40
26531;BME280;14201;43.188;24.160;2023-07-31T07:49:59;99188.66;;;31.24;45.15
26531;BME280;14201;43.188;24.160;2023-07-31T07:52:25;99179.75;;;30.86;44.88
26531;BME280;14201;43.188;24.160;2023-07-31T07:54:50;99195.38;;;30.77;45.05
26531;BME280;14201;43.188;24.160;2023-07-31T07:57:16;99186.81;;;30.50;45.41
26531;BME280;14201;43.188;24.160;2023-07-31T07:59:42;99191.19;;;30.13;45.95
26531;BME280;14201;43.188;24.160;2023-07-31T08:02:08;99199.13;;;29.75;46.92
26531;BME280;14201;43.188;24.160;2023-07-31T08:04:33;99204.84;;;29.66;47.64
26531;BME280;14201;43.188;24.160;2023-07-31T08:06:59;99194.09;;;29.45;48.20
26531;BME280;14201;43.188;24.160;2023-07-31T08:09:24;99194.00;;;29.69;49.12
26531;BME280;14201;43.188;24.160;2023-07-31T08:11:50;99199.91;;;29.77;48.08
26531;BME280;14201;43.188;24.160;2023-07-31T08:14:15;99188.97;;;30.02;47.93
26531;BME280;14201;43.188;24.160;2023-07-31T08:16:42;99189.69;;;30.06;47.49
26531;BME280;14201;43.188;24.160;2023-07-31T08:19:08;99178.53;;;30.15;48.17
26531;BME280;14201;43.188;24.160;2023-07-31T08:21:33;99198.22;;;30.36;47.31
26531;BME280;14201;43.188;24.160;2023-07-31T08:23:59;99197.06;;;30.42;47.01
26531;BME280;14201;43.188;24.160;2023-07-31T08:26:25;99203.00;;;30.49;46.57
26531;BME280;14201;43.188;24.160;2023-07-31T08:28:50;99200.41;;;30.66;47.82
26531;BME280;14201;43.188;24.160;2023-07-31T08:31:16;99194.31;;;31.00;46.52
26531;BME280;14201;43.188;24.160;2023-07-31T08:33:42;99200.84;;;30.76;46.62
26531;BME280;14201;43.188;24.160;2023-07-31T08:36:07;99178.00;;;31.04;47.15
26531;BME280;14201;43.188;24.160;2023-07-31T08:38:33;99200.38;;;31.40;45.69
26531;BME280;14201;43.188;24.160;2023-07-31T08:40:59;99188.59;;;31.43;45.03
26531;BME280;14201;43.188;24.160;2023-07-31T08:43:27;99205.25;;;31.69;45.12
26531;BME280;14201;43.188;24.160;2023-07-31T08:45:53;99196.72;;;31.78;45.51
26531;BME280;14201;43.188;24.160;2023-07-31T08:48:20;99182.53;;;31.57;43.86
26531;BME280;14201;43.188;24.160;2023-07-31T08:50:46;99196.06;;;31.19;44.20
26531;BME280;14201;43.188;24.160;2023-07-31T08:53:12;99206.50;;;31.08;44.82
26531;BME280;14201;43.188;24.160;2023-07-31T08:55:38;99206.41;;;31.09;45.61
26531;BME280;14201;43.188;24.160;2023-07-31T08:58:04;99203.56;;;31.31;45.33
26531;BME280;14201;43.188;24.160;2023-07-31T09:00:32;99203.06;;;31.40;44.12
26531;BME280;14201;43.188;24.160;2023-07-31T09:03:00;99207.00;;;30.78;45.28
26531;BME280;14201;43.188;24.160;2023-07-31T09:05:31;99207.41;;;30.89;44.82
26531;BME280;14201;43.188;24.160;2023-07-31T09:07:57;99204.63;;;31.10;45.07
26531;BME280;14201;43.188;24.160;2023-07-31T09:10:23;99203.22;;;31.20;44.56
26531;BME280;14201;43.188;24.160;2023-07-31T09:12:51;99203.63;;;31.30;45.64
26531;BME280;14201;43.188;24.160;2023-07-31T09:15:17;99210.56;;;31.53;45.31
26531;BME280;14201;43.188;24.160;2023-07-31T09:17:43;99202.56;;;31.69;44.62
26531;BME280;14201;43.188;24.160;2023-07-31T09:20:16;99205.41;;;31.66;44.60
26531;BME280;14201;43.188;24.160;2023-07-31T09:22:42;99199.41;;;31.61;44.28
26531;BME280;14201;43.188;24.160;2023-07-31T09:25:18;99203.91;;;31.60;43.97
26531;BME280;14201;43.188;24.160;2023-07-31T09:30:17;99190.94;;;31.86;44.37
26531;BME280;14201;43.188;24.160;2023-07-31T09:32:44;99194.22;;;31.91;43.73
26531;BME280;14201;43.188;24.160;2023-07-31T09:35:28;99189.25;;;31.83;43.39
26531;BME280;14201;43.188;24.160;2023-07-31T09:38:05;99182.66;;;31.89;43.74
26531;BME280;14201;43.188;24.160;2023-07-31T09:40:32;99184.50;;;31.71;44.28
26531;BME280;14201;43.188;24.160;2023-07-31T09:43:02;99192.28;;;31.59;44.21
26531;BME280;14201;43.188;24.160;2023-07-31T09:45:30;99188.31;;;31.49;43.84
26531;BME280;14201;43.188;24.160;2023-07-31T09:47:56;99195.28;;;31.17;44.42
26531;BME280;14201;43.188;24.160;2023-07-31T09:50:24;99200.09;;;31.10;45.22
26531;BME280;14201;43.188;24.160;2023-07-31T09:52:50;99200.41;;;31.04;45.63
26531;BME280;14201;43.188;24.160;2023-07-31T09:55:17;99202.75;;;30.93;45.90
26531;BME280;14201;43.188;24.160;2023-07-31T09:57:46;99187.88;;;30.84;45.79
26531;BME280;14201;43.188;24.160;2023-07-31T10:00:12;99194.97;;;31.23;46.49
26531;BME280;14201;43.188;24.160;2023-07-31T10:02:39;99185.81;;;31.27;44.60
26531;BME280;14201;43.188;24.160;2023-07-31T10:05:06;99184.59;;;31.52;44.61
26531;BME280;14201;43.188;24.160;2023-07-31T10:07:36;99178.41;;;31.67;42.88
26531;BME280;14201;43.188;24.160;2023-07-31T10:10:04;99178.78;;;31.77;42.70
26531;BME280;14201;43.188;24.160;2023-07-31T10:12:32;99186.06;;;31.92;42.93
26531;BME280;14201;43.188;24.160;2023-07-31T10:15:00;99173.00;;;31.85;42.89
26531;BME280;14201;43.188;24.160;2023-07-31T10:17:26;99176.19;;;31.58;42.78
26531;BME280;14201;43.188;24.160;2023-07-31T10:19:53;99179.91;;;31.55;42.65
26531;BME280;14201;43.188;24.160;2023-07-31T10:22:22;99191.41;;;31.59;42.44
26531;BME280;14201;43.188;24.160;2023-07-31T10:24:48;99186.22;;;31.37;43.13
26531;BME280;14201;43.188;24.160;2023-07-31T10:27:15;99186.22;;;31.37;43.36
26531;BME280;14201;43.188;24.160;2023-07-31T10:29:43;99184.59;;;31.52;43.53
26531;BME280;14201;43.188;24.160;2023-07-31T10:32:10;99182.22;;;31.46;42.94
26531;BME280;14201;43.188;24.160;2023-07-31T10:34:39;99187.53;;;31.47;43.40
26531;BME280;14201;43.188;24.160;2023-07-31T10:37:25;99186.16;;;31.56;43.55
26531;BME280;14201;43.188;24.160;2023-07-31T10:40:04;99184.91;;;31.46;43.69
26531;BME280;14201;43.188;24.160;2023-07-31T10:42:35;99175.72;;;31.67;44.22
26531;BME280;14201;43.188;24.160;2023-07-31T10:45:07;99181.53;;;31.93;43.88
26531;BME280;14201;43.188;24.160;2023-07-31T10:47:39;99180.16;;;32.03;43.30
26531;BME280;14201;43.188;24.160;2023-07-31T10:50:18;99175.84;;;31.99;42.68
26531;BME280;14201;43.188;24.160;2023-07-31T10:52:53;99171.44;;;31.81;42.64
26531;BME280;14201;43.188;24.160;2023-07-31T10:57:57;99176.97;;;31.60;42.60
26531;BME280;14201;43.188;24.160;2023-07-31T11:00:29;99169.78;;;31.78;44.33
26531;BME280;14201;43.188;24.160;2023-07-31T11:03:04;99160.94;;;32.09;43.63
26531;BME280;14201;43.188;24.160;2023-07-31T11:06:00;99164.38;;;32.29;42.00
26531;BME280;14201;43.188;24.160;2023-07-31T11:08:30;99162.25;;;32.18;41.90
26531;BME280;14201;43.188;24.160;2023-07-31T11:13:32;99160.34;;;32.20;42.95
26531;BME280;14201;43.188;24.160;2023-07-31T11:15:58;99142.19;;;32.24;42.47
26531;BME280;14201;43.188;24.160;2023-07-31T11:18:26;99144.88;;;32.24;42.37
26531;BME280;14201;43.188;24.160;2023-07-31T11:20:52;99157.56;;;32.22;42.79
26531;BME280;14201;43.188;24.160;2023-07-31T11:23:19;99142.16;;;32.08;43.17
26531;BME280;14201;43.188;24.160;2023-07-31T11:25:45;99147.56;;;32.57;43.09
26531;BME280;14201;43.188;24.160;2023-07-31T11:28:13;99146.06;;;32.99;43.16
26531;BME280;14201;43.188;24.160;2023-07-31T11:30:40;99153.06;;;33.33;41.56
26531;BME280;14201;43.188;24.160;2023-07-31T11:33:07;99149.59;;;33.31;40.34
26531;BME280;14201;43.188;24.160;2023-07-31T11:35:55;99143.66;;;33.41;40.39
26531;BME280;14201;43.188;24.160;2023-07-31T11:38:28;99142.91;;;33.23;40.26
26531;BME280;14201;43.188;24.160;2023-07-31T11:40:56;99136.13;;;33.46;40.71
26531;BME280;14201;43.188;24.160;2023-07-31T11:43:23;99139.22;;;33.70;40.76
26531;BME280;14201;43.188;24.160;2023-07-31T11:45:51;99138.53;;;33.81;39.77
26531;BME280;14201;43.188;24.160;2023-07-31T11:48:24;99132.88;;;33.85;38.67
26531;BME280;14201;43.188;24.160;2023-07-31T11:50:59;99131.63;;;33.91;38.35
26531;BME280;14201;43.188;24.160;2023-07-31T11:53:32;99129.66;;;33.79;38.27
26531;BME280;14201;43.188;24.160;2023-07-31T11:56:00;99129.31;;;33.54;38.67
26531;BME280;14201;43.188;24.160;2023-07-31T11:58:27;99115.97;;;33.37;39.51
26531;BME280;14201;43.188;24.160;2023-07-31T12:00:54;99120.38;;;33.38;39.93
26531;BME280;14201;43.188;24.160;2023-07-31T12:03:20;99123.06;;;33.54;39.43
26531;BME280;14201;43.188;24.160;2023-07-31T12:05:47;99116.97;;;33.50;39.15
26531;BME280;14201;43.188;24.160;2023-07-31T12:08:14;99113.53;;;33.63;39.50
26531;BME280;14201;43.188;24.160;2023-07-31T12:10:40;99100.41;;;33.71;38.17
26531;BME280;14201;43.188;24.160;2023-07-31T12:13:19;99092.53;;;33.38;38.68
26531;BME280;14201;43.188;24.160;2023-07-31T12:15:46;99101.47;;;33.08;38.80
26531;BME280;14201;43.188;24.160;2023-07-31T12:18:18;99090.22;;;32.53;39.12
26531;BME280;14201;43.188;24.160;2023-07-31T12:20:46;99092.53;;;32.91;38.89
26531;BME280;14201;43.188;24.160;2023-07-31T12:23:17;99089.50;;;33.28;38.60
26531;BME280;14201;43.188;24.160;2023-07-31T12:25:43;99089.03;;;33.21;37.65
26531;BME280;14201;43.188;24.160;2023-07-31T12:28:09;99087.34;;;33.19;38.51
26531;BME280;14201;43.188;24.160;2023-07-31T12:30:39;99082.31;;;33.43;38.53
26531;BME280;14201;43.188;24.160;2023-07-31T12:33:11;99081.31;;;33.29;38.42
26531;BME280;14201;43.188;24.160;2023-07-31T12:35:40;99081.25;;;33.45;38.55
26531;BME280;14201;43.188;24.160;2023-07-31T12:38:06;99086.13;;;33.69;38.21
26531;BME280;14201;43.188;24.160;2023-07-31T12:40:32;99086.03;;;33.85;38.10
26531;BME280;14201;43.188;24.160;2023-07-31T12:43:00;99075.59;;;34.07;38.93
26531;BME280;14201;43.188;24.160;2023-07-31T12:45:27;99075.69;;;34.35;37.83
26531;BME280;14201;43.188;24.160;2023-07-31T12:47:52;99070.19;;;34.07;36.40
26531;BME280;14201;43.188;24.160;2023-07-31T12:50:18;99072.81;;;34.09;36.80
26531;BME280;14201;43.188;24.160;2023-07-31T12:52:44;99078.31;;;34.22;36.66
26531;BME280;14201;43.188;24.160;2023-07-31T12:55:09;99063.44;;;34.29;37.61
26531;BME280;14201;43.188;24.160;2023-07-31T12:57:36;99055.19;;;34.45;37.30